Time;durP1;ratioP1;P1;durP2;ratioP2;P2;SDS_P1;SDS_P2;PMS_P1;PMS_P2;Temp;Humidity;BMP_temperature;BMP_pressure;BME280_temperature;BME280_humidity;BME280_pressure;Samples;Min_cycle;Max_cycle;Signal;HPM_P1;HPM_P2
2023/06/15 00:02:06;;;;;;;5.15;3.50;;;17.60;1.00;;;;;;7391444;19;20019;-69
2023/06/15 00:04:36;;;;;;;7.20;3.75;;;17.60;1.00;;;;;;7390558;19;20471;-69
2023/06/15 00:07:07;;;;;;;4.22;3.40;;;17.60;1.00;;;;;;7388603;19;20022;-69
2023/06/15 00:09:39;;;;;;;3.83;3.20;;;17.50;1.00;;;;;;7392594;19;20046;-69
2023/06/15 00:12:10;;;;;;;4.13;3.63;;;17.50;1.00;;;;;;7389555;19;20014;-69
2023/06/15 00:14:40;;;;;;;4.40;3.33;;;17.50;1.00;;;;;;7390451;19;20078;-69
2023/06/15 00:17:11;;;;;;;4.85;3.80;;;17.50;1.00;;;;;;7387073;19;20086;-69
2023/06/15 00:19:43;;;;;;;7.60;4.03;;;17.40;1.00;;;;;;7388446;19;20014;-69
2023/06/15 00:22:14;;;;;;;5.38;3.65;;;17.40;1.00;;;;;;7391280;19;20014;-68
2023/06/15 00:24:47;;;;;;;4.18;3.55;;;17.30;1.00;;;;;;7390192;19;20019;-69
2023/06/15 00:27:17;;;;;;;6.35;3.63;;;17.30;1.00;;;;;;7389862;19;20020;-69
2023/06/15 00:29:47;;;;;;;6.32;3.88;;;17.30;1.00;;;;;;7391415;19;20025;-68
2023/06/15 00:32:17;;;;;;;4.32;3.67;;;17.30;1.00;;;;;;7390978;19;20023;-68
2023/06/15 00:34:47;;;;;;;5.22;4.00;;;17.30;1.00;;;;;;7393190;19;20408;-68
2023/06/15 00:37:17;;;;;;;4.88;3.75;;;17.30;1.00;;;;;;7390246;19;20086;-69
2023/06/15 00:39:50;;;;;;;4.30;3.67;;;17.30;1.00;;;;;;7388997;19;20042;-68
2023/06/15 00:42:20;;;;;;;6.53;3.88;;;17.30;1.00;;;;;;7392766;19;20085;-69
2023/06/15 00:44:50;;;;;;;4.32;3.90;;;17.30;1.00;;;;;;7391036;19;20014;-68
2023/06/15 00:47:21;;;;;;;7.50;3.90;;;17.20;1.00;;;;;;7392366;19;20024;-68
2023/06/15 00:49:52;;;;;;;4.00;3.60;;;17.20;1.00;;;;;;7391765;19;20022;-69
2023/06/15 00:52:23;;;;;;;4.53;3.90;;;17.10;1.00;;;;;;7386810;19;20018;-69
2023/06/15 00:54:55;;;;;;;6.00;3.90;;;17.10;1.00;;;;;;7384898;19;20042;-69
2023/06/15 00:57:25;;;;;;;5.82;3.92;;;17.00;1.00;;;;;;7385376;19;20015;-69
2023/06/15 00:59:55;;;;;;;6.35;3.70;;;17.00;1.00;;;;;;7386768;19;20030;-69
2023/06/15 01:02:25;;;;;;;6.95;3.90;;;16.90;1.00;;;;;;7384752;19;20031;-68
2023/06/15 01:04:55;;;;;;;5.55;4.20;;;16.90;1.00;;;;;;7391995;19;20023;-69
2023/06/15 01:07:27;;;;;;;6.20;4.10;;;16.80;1.00;;;;;;7391553;19;20006;-69
2023/06/15 01:10:01;;;;;;;7.00;4.20;;;16.80;1.00;;;;;;7391356;19;20072;-69
2023/06/15 01:12:32;;;;;;;5.28;4.13;;;16.70;1.00;;;;;;7389417;19;20467;-68
2023/06/15 01:15:02;;;;;;;5.97;3.72;;;16.70;1.00;;;;;;7388288;19;20015;-68
2023/06/15 01:17:32;;;;;;;6.22;4.07;;;16.70;1.00;;;;;;7388513;19;20018;-68
2023/06/15 01:20:07;;;;;;;3.92;3.50;;;16.60;1.00;;;;;;7391996;19;20015;-69
2023/06/15 01:22:49;;;;;;;6.90;3.83;;;16.60;1.00;;;;;;7392379;19;20629;-68
2023/06/15 01:25:29;;;;;;;5.05;3.90;;;16.50;1.00;;;;;;7392038;19;20038;-69
2023/06/15 01:28:07;;;;;;;4.60;3.95;;;16.50;1.00;;;;;;7396143;19;20329;-69
2023/06/15 01:30:43;;;;;;;8.38;4.05;;;16.50;1.00;;;;;;7396972;19;20442;-69
2023/06/15 01:33:14;;;;;;;5.60;3.55;;;16.50;1.00;;;;;;7396897;19;20496;-69
2023/06/15 01:35:44;;;;;;;5.35;4.20;;;16.40;1.00;;;;;;7396096;19;20014;-69
2023/06/15 01:38:15;;;;;;;5.63;3.97;;;16.40;1.00;;;;;;7395809;19;20024;-69
2023/06/15 01:40:49;;;;;;;5.38;4.07;;;16.40;1.00;;;;;;7392380;19;20105;-68
2023/06/15 01:43:23;;;;;;;8.88;4.22;;;16.40;1.00;;;;;;7393705;19;20096;-69
2023/06/15 01:45:54;;;;;;;;;;;16.40;1.00;;;;;;7395250;19;20475;-69
2023/06/15 01:48:25;;;;;;;6.10;3.70;;;16.40;1.00;;;;;;7394303;19;19940;-68
2023/06/15 01:50:55;;;;;;;4.93;4.32;;;16.40;1.00;;;;;;7396702;19;20029;-69
2023/06/15 01:53:26;;;;;;;6.22;4.22;;;16.40;1.00;;;;;;7393724;19;20010;-69
2023/06/15 01:55:57;;;;;;;5.55;3.88;;;16.40;1.00;;;;;;7393391;19;20499;-69
2023/06/15 01:58:30;;;;;;;4.28;3.70;;;16.30;1.00;;;;;;7395762;19;20010;-69
2023/06/15 02:01:00;;;;;;;4.25;3.85;;;16.30;1.00;;;;;;7392685;19;20011;-69
2023/06/15 02:03:31;;;;;;;5.15;3.75;;;16.30;1.00;;;;;;7398489;19;20013;-69
2023/06/15 02:06:01;;;;;;;5.40;3.97;;;16.30;1.00;;;;;;7398790;19;20017;-69
2023/06/15 02:08:31;;;;;;;6.07;4.10;;;16.30;1.00;;;;;;7395579;19;20078;-69
2023/06/15 02:11:01;;;;;;;5.97;4.05;;;16.20;1.00;;;;;;7396393;19;20011;-69
2023/06/15 02:13:33;;;;;;;5.25;4.07;;;16.20;1.00;;;;;;7397732;19;20027;-69
2023/06/15 02:16:03;;;;;;;3.97;3.60;;;16.20;1.00;;;;;;7396393;19;20031;-69
2023/06/15 02:18:33;;;;;;;5.90;3.95;;;16.10;1.00;;;;;;7395375;19;20018;-69
2023/06/15 02:21:03;;;;;;;6.53;4.05;;;16.10;1.00;;;;;;7390128;19;20031;-69
2023/06/15 02:23:34;;;;;;;5.15;3.72;;;16.00;1.00;;;;;;7392836;19;20014;-72
2023/06/15 02:26:05;;;;;;;7.88;4.35;;;16.10;1.00;;;;;;7391468;19;20019;-71
2023/06/15 02:28:37;;;;;;;5.40;4.07;;;16.00;1.00;;;;;;7391497;19;20055;-71
2023/06/15 02:31:07;;;;;;;5.28;4.35;;;16.00;1.00;;;;;;7388516;19;20019;-71
2023/06/15 02:33:38;;;;;;;4.32;3.92;;;16.00;1.00;;;;;;7392834;19;20042;-71
2023/06/15 02:36:08;;;;;;;7.65;4.38;;;16.00;1.00;;;;;;7390017;19;20006;-71
2023/06/15 02:38:38;;;;;;;5.25;4.30;;;16.00;1.00;;;;;;7393148;19;20029;-69
2023/06/15 02:41:08;;;;;;;6.53;4.55;;;15.80;1.00;;;;;;7388770;19;20066;-70
2023/06/15 02:43:41;;;;;;;4.20;3.80;;;15.80;1.00;;;;;;7384130;19;20014;-69
2023/06/15 02:46:11;;;;;;;5.40;4.50;;;15.80;1.00;;;;;;7386300;19;20423;-70
2023/06/15 02:48:41;;;;;;;5.63;3.83;;;15.80;1.00;;;;;;7390581;19;20015;-70
2023/06/15 02:51:11;;;;;;;5.18;3.97;;;15.70;1.00;;;;;;7389470;19;20043;-69
2023/06/15 02:53:41;;;;;;;6.22;4.25;;;15.70;1.00;;;;;;7388327;19;20374;-70
2023/06/15 02:56:11;;;;;;;8.73;4.68;;;15.60;1.00;;;;;;7396366;19;20102;-70
2023/06/15 02:58:44;;;;;;;5.07;4.15;;;15.60;1.00;;;;;;7404001;19;20026;-70
2023/06/15 03:01:15;;;;;;;5.40;4.80;;;15.60;1.00;;;;;;7394415;19;20364;-70
2023/06/15 03:03:45;;;;;;;4.60;4.13;;;15.70;1.00;;;;;;7391330;19;20017;-70
2023/06/15 03:06:15;;;;;;;4.55;4.15;;;15.70;1.00;;;;;;7383809;19;20021;-70
2023/06/15 03:08:45;;;;;;;6.53;4.38;;;15.70;1.00;;;;;;7383556;19;20090;-70
2023/06/15 03:11:15;;;;;;;7.43;4.10;;;15.70;1.00;;;;;;7374940;19;20094;-71
2023/06/15 03:13:48;;;;;;;6.57;4.45;;;15.70;1.00;;;;;;7384812;19;20097;-70
2023/06/15 03:16:17;;;;;;;6.70;4.65;;;15.60;1.00;;;;;;7247408;19;2738936;-70
2023/06/15 03:18:47;;;;;;;6.93;5.15;;;15.60;1.00;;;;;;7385545;19;20418;-70
2023/06/15 03:21:20;;;;;;;5.13;4.32;;;15.60;1.00;;;;;;7382567;19;20515;-70
2023/06/15 03:23:50;;;;;;;7.28;4.57;;;15.50;1.00;;;;;;7386240;19;20810;-70
2023/06/15 03:26:23;;;;;;;5.88;4.57;;;15.40;1.00;;;;;;7386916;19;20011;-70
2023/06/15 03:28:57;;;;;;;7.93;5.07;;;15.50;1.00;;;;;;7388600;19;20029;-71
2023/06/15 03:31:28;;;;;;;5.63;4.55;;;15.50;1.00;;;;;;7380717;19;20521;-71
2023/06/15 03:33:58;;;;;;;7.25;4.55;;;15.40;1.00;;;;;;7383346;19;20463;-71
2023/06/15 03:36:29;;;;;;;8.27;4.97;;;15.50;1.00;;;;;;7384633;19;20051;-72
2023/06/15 03:38:59;;;;;;;7.47;4.60;;;15.60;1.00;;;;;;7384482;19;20018;-71
2023/06/15 03:41:30;;;;;;;6.55;4.82;;;15.70;1.00;;;;;;7383040;19;20014;-71
2023/06/15 03:44:02;;;;;;;7.90;4.45;;;16.40;1.00;;;;;;7383981;19;20019;-71
2023/06/15 03:46:32;;;;;;;6.85;4.28;;;17.10;1.00;;;;;;7383652;19;20011;-71
2023/06/15 03:49:02;;;;;;;6.60;4.50;;;17.40;1.00;;;;;;7383365;19;20026;-71
2023/06/15 03:51:32;;;;;;;7.28;4.53;;;17.80;1.00;;;;;;7385306;19;20052;-71
2023/06/15 03:54:02;;;;;;;7.95;4.38;;;17.90;1.00;;;;;;7380254;19;20417;-70
2023/06/15 03:56:32;;;;;;;7.50;4.25;;;18.00;1.00;;;;;;7383349;19;20025;-71
2023/06/15 03:59:04;;;;;;;7.88;4.60;;;18.40;1.00;;;;;;7384389;19;20043;-70
2023/06/15 04:01:35;;;;;;;6.10;4.65;;;18.60;1.00;;;;;;7387200;19;20127;-70
2023/06/15 04:04:06;;;;;;;5.20;4.40;;;19.10;1.00;;;;;;7384145;19;20014;-71
2023/06/15 04:06:36;;;;;;;6.18;4.68;;;19.10;1.00;;;;;;7383104;19;20039;-70
2023/06/15 04:09:06;;;;;;;5.75;4.47;;;19.40;1.00;;;;;;7384509;19;20478;-71
2023/06/15 04:11:36;;;;;;;7.50;4.80;;;19.40;1.00;;;;;;7382993;19;20011;-71
2023/06/15 04:14:09;;;;;;;6.03;3.95;;;19.40;1.00;;;;;;7382130;19;20052;-71
2023/06/15 04:16:39;;;;;;;5.47;4.25;;;19.50;1.00;;;;;;7381382;19;20018;-71
2023/06/15 04:19:09;;;;;;;6.10;4.50;;;19.70;1.00;;;;;;7384907;19;20786;-70
2023/06/15 04:21:39;;;;;;;6.10;4.30;;;20.20;1.00;;;;;;7382570;19;20034;-72
2023/06/15 04:24:10;;;;;;;5.70;4.38;;;20.90;1.00;;;;;;7385656;19;20427;-70
2023/06/15 04:26:41;;;;;;;7.05;4.30;;;21.60;1.00;;;;;;7383532;19;20019;-71
2023/06/15 04:29:18;;;;;;;4.63;4.10;;;21.90;1.00;;;;;;7383763;19;20014;-71
2023/06/15 04:31:54;;;;;;;4.40;4.00;;;20.60;1.00;;;;;;7383200;19;20018;-71
2023/06/15 04:34:26;;;;;;;7.20;4.40;;;21.00;1.00;;;;;;7380665;19;20110;-71
2023/06/15 04:36:56;;;;;;;5.85;4.20;;;20.50;1.00;;;;;;7382175;19;20015;-71
2023/06/15 04:39:27;;;;;;;7.07;4.20;;;21.60;1.00;;;;;;7381816;19;20483;-71
2023/06/15 04:41:57;;;;;;;5.95;4.30;;;21.70;1.00;;;;;;7383560;19;20043;-70
2023/06/15 04:44:30;;;;;;;4.82;3.78;;;21.90;1.00;;;;;;7381751;19;20018;-70
2023/06/15 04:47:00;;;;;;;5.47;4.65;;;22.10;1.00;;;;;;7382486;19;20014;-71
2023/06/15 04:49:30;;;;;;;5.28;4.28;;;21.60;1.00;;;;;;7381559;19;20052;-71
2023/06/15 04:52:00;;;;;;;4.75;3.50;;;22.30;1.00;;;;;;7382307;19;20007;-72
2023/06/15 04:54:30;;;;;;;5.13;4.32;;;22.20;1.00;;;;;;7381805;19;20014;-71
2023/06/15 04:57:00;;;;;;;5.10;4.45;;;22.00;1.00;;;;;;7383398;19;20066;-71
2023/06/15 04:59:33;;;;;;;5.93;4.32;;;22.40;1.00;;;;;;7385392;19;20735;-71
2023/06/15 05:02:02;;;;;;;5.28;4.00;;;22.80;1.00;;;;;;7385683;19;20007;-71
2023/06/15 05:04:32;;;;;;;5.40;4.45;;;23.30;1.00;;;;;;7381606;19;20018;-71
2023/06/15 05:07:03;;;;;;;6.70;4.47;;;23.10;1.00;;;;;;7382066;19;20031;-70
2023/06/15 05:09:33;;;;;;;11.20;5.07;;;23.10;1.00;;;;;;7384092;19;20026;-70
2023/06/15 05:12:03;;;;;;;5.32;3.97;;;23.40;1.00;;;;;;7382111;19;20019;-71
2023/06/15 05:14:35;;;;;;;10.10;4.70;;;24.10;1.00;;;;;;7379989;19;20082;-71
2023/06/15 05:17:06;;;;;;;6.35;4.72;;;23.80;1.00;;;;;;7381465;19;20014;-71
2023/06/15 05:19:36;;;;;;;4.50;4.10;;;23.00;1.00;;;;;;7383082;19;20027;-71
2023/06/15 05:22:06;;;;;;;4.75;4.25;;;23.50;1.00;;;;;;7380768;19;20617;-71
2023/06/15 05:24:36;;;;;;;5.18;4.68;;;23.80;1.00;;;;;;7384737;19;20034;-71
2023/06/15 05:27:08;;;;;;;4.57;4.07;;;23.50;1.00;;;;;;7381246;19;20022;-71
2023/06/15 05:29:41;;;;;;;9.23;5.20;;;22.60;1.00;;;;;;7382700;19;20022;-71
2023/06/15 05:32:11;;;;;;;7.90;5.03;;;22.80;1.00;;;;;;7380500;19;20014;-71
2023/06/15 05:34:41;;;;;;;8.02;4.82;;;22.90;1.00;;;;;;7378113;19;20021;-71
2023/06/15 05:37:11;;;;;;;10.75;4.55;;;22.90;1.00;;;;;;7380595;19;20018;-70
2023/06/15 05:39:41;;;;;;;6.95;4.63;;;23.10;1.00;;;;;;7379967;19;20020;-71
2023/06/15 05:42:11;;;;;;;5.95;4.50;;;22.90;1.00;;;;;;7378344;19;20544;-71
2023/06/15 05:44:44;;;;;;;8.57;5.50;;;23.20;1.00;;;;;;7379829;19;20587;-70
2023/06/15 05:47:14;;;;;;;9.93;4.82;;;22.90;1.00;;;;;;7380592;19;20090;-71
2023/06/15 05:49:44;;;;;;;10.10;5.32;;;22.40;1.00;;;;;;7379805;19;20018;-70
2023/06/15 05:52:14;;;;;;;8.73;4.97;;;21.10;1.00;;;;;;7383162;19;20015;-71
2023/06/15 05:54:46;;;;;;;10.68;5.90;;;21.40;1.00;;;;;;7383788;19;20022;-71
2023/06/15 05:57:16;;;;;;;12.38;5.85;;;21.70;1.00;;;;;;7379619;19;20474;-71
2023/06/15 05:59:49;;;;;;;10.85;5.45;;;21.80;1.00;;;;;;7378574;19;20474;-71
2023/06/15 06:02:19;;;;;;;9.05;4.85;;;21.40;1.00;;;;;;7378655;19;20485;-71
2023/06/15 06:04:49;;;;;;;9.75;5.38;;;21.10;1.00;;;;;;7377382;19;20029;-71
2023/06/15 06:07:19;;;;;;;8.57;5.25;;;19.60;1.00;;;;;;7379349;19;20014;-71
2023/06/15 06:09:49;;;;;;;6.05;4.88;;;18.90;1.00;;;;;;7383121;19;20890;-71
2023/06/15 06:12:19;;;;;;;11.40;5.10;;;19.00;1.00;;;;;;7386273;19;20021;-71
2023/06/15 06:14:51;;;;;;;9.50;5.60;;;19.20;1.00;;;;;;7384976;19;20625;-70
2023/06/15 06:17:21;;;;;;;11.85;5.40;;;19.30;1.00;;;;;;7386682;19;20019;-71
2023/06/15 06:20:13;;;;;;;10.57;5.43;;;18.70;1.00;;;;;;7388278;19;20019;-70
2023/06/15 06:22:43;;;;;;;9.85;5.00;;;19.30;1.00;;;;;;7386953;19;20010;-70
2023/06/15 06:25:13;;;;;;;10.90;5.15;;;19.70;1.00;;;;;;7386016;19;20007;-71
2023/06/15 06:27:44;;;;;;;10.30;5.72;;;19.60;1.00;;;;;;7386119;19;20046;-71
2023/06/15 06:30:16;;;;;;;7.50;4.97;;;19.50;1.00;;;;;;7388156;19;20090;-70
2023/06/15 06:32:46;;;;;;;7.50;5.28;;;19.60;1.00;;;;;;7386955;19;20014;-69
2023/06/15 06:35:17;;;;;;;13.73;4.80;;;19.80;1.00;;;;;;7385708;19;20010;-71
2023/06/15 06:37:47;;;;;;;9.50;5.03;;;21.40;1.00;;;;;;7386712;19;20018;-71
2023/06/15 06:40:17;;;;;;;5.00;4.50;;;22.10;1.00;;;;;;7384451;19;20050;-73
2023/06/15 06:42:47;;;;;;;10.18;4.88;;;21.70;1.00;;;;;;7388025;19;20039;-70
2023/06/15 06:45:20;;;;;;;12.05;4.60;;;21.30;1.00;;;;;;7386088;19;20457;-71
2023/06/15 06:47:50;;;;;;;9.00;5.03;;;20.60;1.00;;;;;;7391130;19;20417;-70
2023/06/15 06:50:20;;;;;;;5.03;4.03;;;20.40;1.00;;;;;;7393347;19;20014;-69
2023/06/15 06:52:50;;;;;;;5.88;4.57;;;20.50;1.00;;;;;;7402266;19;20467;-71
2023/06/15 06:55:20;;;;;;;10.00;4.50;;;21.00;1.00;;;;;;7397043;19;20082;-73
2023/06/15 06:57:50;;;;;;;6.38;4.55;;;20.60;1.00;;;;;;7396933;19;20054;-68
2023/06/15 07:00:23;;;;;;;7.47;4.70;;;20.80;1.00;;;;;;7393633;19;20489;-70
2023/06/15 07:02:53;;;;;;;7.80;4.75;;;21.30;1.00;;;;;;7390639;19;20723;-70
2023/06/15 07:05:23;;;;;;;6.93;4.90;;;21.00;1.00;;;;;;7388929;19;20042;-68
2023/06/15 07:07:53;;;;;;;6.15;4.40;;;21.00;1.00;;;;;;7389890;19;20022;-72
2023/06/15 07:10:23;;;;;;;8.35;4.82;;;21.00;1.00;;;;;;7384503;19;20018;-70
2023/06/15 07:12:55;;;;;;;6.32;4.13;;;21.00;1.00;;;;;;7385420;19;20555;-71
2023/06/15 07:15:31;;;;;;;4.38;3.97;;;21.00;1.00;;;;;;7383157;19;20121;-71
2023/06/15 07:18:01;;;;;;;6.88;4.40;;;20.80;1.00;;;;;;7384663;19;20031;-71
2023/06/15 07:20:31;;;;;;;6.45;4.40;;;21.00;1.00;;;;;;7387577;19;20019;-71
2023/06/15 07:23:01;;;;;;;9.73;4.60;;;21.20;1.00;;;;;;7381416;19;20014;-71
2023/06/15 07:25:31;;;;;;;8.30;4.22;;;21.30;1.00;;;;;;7384860;19;20023;-71
2023/06/15 07:28:01;;;;;;;7.10;4.30;;;21.70;1.00;;;;;;7386093;19;20019;-70
2023/06/15 07:30:34;;;;;;;9.50;4.85;;;21.40;1.00;;;;;;7387363;19;20022;-70
2023/06/15 07:33:03;;;;;;;4.85;4.35;;;21.20;1.00;;;;;;7385681;19;20030;-71
2023/06/15 07:35:34;;;;;;;7.72;4.78;;;21.20;1.00;;;;;;7382057;19;20057;-70
2023/06/15 07:38:03;;;;;;;5.05;4.47;;;21.40;1.00;;;;;;7380764;19;20470;-72
2023/06/15 07:40:36;;;;;;;6.38;4.50;;;21.60;1.00;;;;;;7382175;19;20015;-71
2023/06/15 07:43:06;;;;;;;5.10;4.60;;;21.40;1.00;;;;;;7385659;19;20078;-71
2023/06/15 07:45:38;;;;;;;8.63;4.90;;;21.40;1.00;;;;;;7386785;19;20113;-72
2023/06/15 07:48:08;;;;;;;9.98;4.75;;;21.40;1.00;;;;;;7386157;19;20494;-70
2023/06/15 07:50:38;;;;;;;5.45;4.47;;;21.80;1.00;;;;;;7386146;19;20022;-71
2023/06/15 07:53:08;;;;;;;5.13;4.65;;;21.40;1.00;;;;;;7384143;19;20017;-71
2023/06/15 07:55:38;;;;;;;5.82;4.85;;;21.20;1.00;;;;;;7381227;19;20031;-71
2023/06/15 07:58:08;;;;;;;6.55;4.70;;;21.70;1.00;;;;;;7383209;19;20439;-71
2023/06/15 08:00:40;;;;;;;5.55;4.72;;;21.70;1.00;;;;;;7382791;19;20015;-71
2023/06/15 08:03:10;;;;;;;6.03;4.78;;;21.70;1.00;;;;;;7386256;19;20050;-70
2023/06/15 08:05:40;;;;;;;5.30;4.80;;;21.90;1.00;;;;;;7381421;19;20006;-70
2023/06/15 08:08:12;;;;;;;7.00;4.68;;;22.10;1.00;;;;;;7384098;19;20014;-71
2023/06/15 08:10:42;;;;;;;4.82;4.32;;;22.20;1.00;;;;;;7382437;19;20018;-71
2023/06/15 08:13:18;;;;;;;4.88;4.38;;;22.10;1.00;;;;;;7382275;19;20082;-70
2023/06/15 08:15:52;;;;;;;4.97;4.25;;;21.80;1.00;;;;;;7381078;19;20017;-72
2023/06/15 08:18:22;;;;;;;6.32;4.60;;;21.90;1.00;;;;;;7382411;19;20367;-70
2023/06/15 08:20:52;;;;;;;5.78;4.55;;;21.80;1.00;;;;;;7379450;19;20052;-71
2023/06/15 08:23:22;;;;;;;5.28;4.60;;;21.80;1.00;;;;;;7366482;19;20057;-70
2023/06/15 08:25:53;;;;;;;5.05;4.40;;;22.00;1.00;;;;;;7385630;19;20022;-71
2023/06/15 08:28:24;;;;;;;4.78;3.97;;;22.50;1.00;;;;;;7386042;19;20133;-71
2023/06/15 08:30:57;;;;;;;5.60;4.10;;;22.40;1.00;;;;;;7382193;19;20007;-71
2023/06/15 08:33:26;;;;;;;7.20;4.45;;;22.00;1.00;;;;;;7382487;19;20018;-71
2023/06/15 08:35:56;;;;;;;5.05;4.55;;;22.20;1.00;;;;;;7381861;19;20018;-71
2023/06/15 08:38:27;;;;;;;7.57;4.38;;;22.50;1.00;;;;;;7381675;19;20106;-71
2023/06/15 08:40:56;;;;;;;11.50;4.75;;;22.40;1.00;;;;;;7383990;19;20006;-71
2023/06/15 08:43:28;;;;;;;6.28;4.50;;;22.50;1.00;;;;;;7385485;19;20018;-71
2023/06/15 08:46:02;;;;;;;6.40;4.10;;;22.80;1.00;;;;;;7381042;19;20021;-71
2023/06/15 08:48:35;;;;;;;10.53;4.50;;;22.80;1.00;;;;;;7385057;19;20538;-70
2023/06/15 08:51:07;;;;;;;8.80;4.30;;;22.60;1.00;;;;;;7383473;19;20358;-71
2023/06/15 08:53:40;;;;;;;5.35;4.43;;;22.80;1.00;;;;;;7383527;19;20019;-70
2023/06/15 08:56:13;;;;;;;7.63;4.50;;;22.70;1.00;;;;;;7378694;19;20015;-72
2023/06/15 08:58:49;;;;;;;6.22;4.25;;;23.00;1.00;;;;;;7381598;19;20022;-70
2023/06/15 09:01:25;;;;;;;6.95;4.28;;;22.80;1.00;;;;;;7382832;19;20471;-71
2023/06/15 09:03:57;;;;;;;9.20;4.43;;;22.90;1.00;;;;;;7384077;19;20355;-72
2023/06/15 09:06:27;;;;;;;10.30;5.10;;;22.70;1.00;;;;;;7381073;19;20932;-71
2023/06/15 09:08:57;;;;;;;6.00;4.07;;;22.80;1.00;;;;;;7382559;19;20487;-71
2023/06/15 09:11:27;;;;;;;4.70;3.65;;;22.90;1.00;;;;;;7379404;19;20026;-70
2023/06/15 09:13:58;;;;;;;6.90;4.88;;;23.30;1.00;;;;;;7383174;19;20024;-71
2023/06/15 09:16:33;;;;;;;5.90;4.10;;;23.30;1.00;;;;;;7378399;19;20015;-71
2023/06/15 09:19:16;;;;;;;6.13;3.80;;;23.30;1.00;;;;;;7381059;19;20099;-71
2023/06/15 09:21:52;;;;;;;4.78;3.88;;;23.30;1.00;;;;;;7381021;19;20014;-70
2023/06/15 09:24:25;;;;;;;5.07;3.47;;;23.80;1.00;;;;;;7383679;19;20054;-70
2023/06/15 09:26:56;;;;;;;7.95;4.07;;;23.70;1.00;;;;;;7379755;19;20021;-71
2023/06/15 09:29:26;;;;;;;6.95;4.00;;;23.70;1.00;;;;;;7382338;19;20018;-71
2023/06/15 09:32:03;;;;;;;13.10;4.18;;;23.40;1.00;;;;;;7383363;19;20018;-71
2023/06/15 09:34:33;;;;;;;6.78;4.43;;;23.60;1.00;;;;;;7383707;19;20022;-71
2023/06/15 09:37:04;;;;;;;5.47;4.00;;;23.80;1.00;;;;;;7381718;19;20014;-70
2023/06/15 09:39:34;;;;;;;5.72;4.18;;;23.90;1.00;;;;;;7382721;19;20018;-70
2023/06/15 09:42:06;;;;;;;6.28;3.97;;;23.90;1.00;;;;;;7380276;19;20014;-70
2023/06/15 09:44:40;;;;;;;6.10;3.97;;;23.90;1.00;;;;;;7382051;19;20022;-70
2023/06/15 09:47:17;;;;;;;;;;;24.00;1.00;;;;;;7392510;19;20014;-71
2023/06/15 09:49:50;;;;;;;6.53;4.00;;;24.00;1.00;;;;;;7385842;19;19923;-71
2023/06/15 09:52:20;;;;;;;7.25;3.78;;;24.30;1.00;;;;;;7387609;19;20021;-71
2023/06/15 09:54:50;;;;;;;5.75;4.18;;;25.30;1.00;;;;;;7389758;19;20038;-70
2023/06/15 09:57:21;;;;;;;4.65;4.15;;;24.70;1.00;;;;;;7385714;19;20025;-71
2023/06/15 09:59:51;;;;;;;5.13;4.22;;;23.90;1.00;;;;;;7385979;19;20018;-70
2023/06/15 10:02:25;;;;;;;6.13;4.07;;;23.20;1.00;;;;;;7386558;19;20018;-72
2023/06/15 10:04:55;;;;;;;3.80;3.42;;;23.60;1.00;;;;;;7390889;19;20479;-70
2023/06/15 10:07:25;;;;;;;4.18;3.78;;;23.40;1.00;;;;;;7387038;19;20024;-71
2023/06/15 10:09:56;;;;;;;5.00;4.32;;;23.20;1.00;;;;;;7388196;19;20015;-71
2023/06/15 10:12:30;;;;;;;4.18;3.78;;;23.90;1.00;;;;;;7390491;19;20019;-70
2023/06/15 10:15:05;;;;;;;6.43;3.70;;;24.00;1.00;;;;;;7390706;19;20488;-71
2023/06/15 10:17:40;;;;;;;4.63;3.58;;;23.40;1.00;;;;;;7384719;19;20021;-71
2023/06/15 10:20:16;;;;;;;6.18;4.25;;;23.70;1.00;;;;;;7389655;19;20111;-71
2023/06/15 10:22:53;;;;;;;5.57;4.20;;;23.40;1.00;;;;;;7386608;19;20031;-71
2023/06/15 10:25:25;;;;;;;6.97;4.03;;;23.50;1.00;;;;;;7386387;19;20019;-71
2023/06/15 10:27:56;;;;;;;5.47;4.00;;;23.50;1.00;;;;;;7388293;19;20040;-70
2023/06/15 10:30:34;;;;;;;7.35;3.97;;;23.80;1.00;;;;;;7388650;19;20022;-70
2023/06/15 10:33:14;;;;;;;4.55;3.58;;;23.70;1.00;;;;;;7389067;19;20014;-71
2023/06/15 10:35:50;;;;;;;4.45;4.03;;;23.30;1.00;;;;;;7390172;19;20014;-72
2023/06/15 10:38:31;;;;;;;7.07;4.03;;;23.30;1.00;;;;;;7384526;19;20078;-70
2023/06/15 10:41:06;;;;;;;4.85;3.67;;;23.40;1.00;;;;;;7387731;19;20043;-70
2023/06/15 10:43:36;;;;;;;7.45;3.70;;;23.10;1.00;;;;;;7388715;19;20084;-71
2023/06/15 10:46:10;;;;;;;4.13;3.50;;;23.30;1.00;;;;;;7389705;19;20014;-70
2023/06/15 10:48:43;;;;;;;5.88;3.40;;;23.30;1.00;;;;;;7385782;19;20053;-70
2023/06/15 10:51:15;;;;;;;4.22;3.10;;;23.20;1.00;;;;;;7383206;19;20046;-70
2023/06/15 10:53:45;;;;;;;4.82;3.72;;;23.30;1.00;;;;;;7385910;19;20106;-71
2023/06/15 10:56:17;;;;;;;5.25;3.00;;;23.10;1.00;;;;;;7384538;19;20011;-71
2023/06/15 10:58:56;;;;;;;6.00;3.40;;;23.20;1.00;;;;;;7385632;19;20415;-70
2023/06/15 11:01:27;;;;;;;4.85;3.30;;;24.40;1.00;;;;;;7384290;19;20078;-70
2023/06/15 11:04:00;;;;;;;5.30;3.80;;;24.70;1.00;;;;;;7386451;19;20627;-70
2023/06/15 11:06:35;;;;;;;6.18;3.90;;;24.90;1.00;;;;;;7385765;19;20014;-71
2023/06/15 11:09:07;;;;;;;4.57;3.70;;;25.40;1.00;;;;;;7387799;19;20460;-72
2023/06/15 11:11:39;;;;;;;5.93;3.50;;;25.10;1.00;;;;;;7385156;19;20503;-72
2023/06/15 11:14:22;;;;;;;4.90;3.45;;;24.70;1.00;;;;;;7379799;19;20030;-71
2023/06/15 11:17:04;;;;;;;4.88;3.45;;;24.90;1.00;;;;;;7385718;19;20011;-70
2023/06/15 11:19:44;;;;;;;7.32;3.40;;;25.10;1.00;;;;;;7386983;19;20025;-71
2023/06/15 11:22:25;;;;;;;4.70;3.20;;;24.70;1.00;;;;;;7388613;19;20384;-71
2023/06/15 11:24:57;;;;;;;3.67;3.30;;;24.50;1.00;;;;;;7387126;19;20022;-71
2023/06/15 11:27:27;;;;;;;8.13;3.65;;;24.50;1.00;;;;;;7384220;19;20015;-71
2023/06/15 11:29:58;;;;;;;6.30;4.28;;;24.50;1.00;;;;;;7387534;19;20014;-72
2023/06/15 11:32:29;;;;;;;4.38;3.33;;;25.20;1.00;;;;;;7386532;19;20025;-71
2023/06/15 11:35:04;;;;;;;4.00;3.33;;;25.60;1.00;;;;;;7386456;19;20494;-71
2023/06/15 11:37:35;;;;;;;4.35;3.55;;;24.40;1.00;;;;;;7387499;19;20030;-71
2023/06/15 11:40:06;;;;;;;5.72;3.67;;;24.10;1.00;;;;;;7381580;19;20031;-71
2023/06/15 11:42:36;;;;;;;3.75;3.38;;;24.60;1.00;;;;;;7382431;19;20514;-71
2023/06/15 11:45:07;;;;;;;5.25;3.22;;;25.00;1.00;;;;;;7386420;19;20014;-71
2023/06/15 11:47:37;;;;;;;3.75;3.33;;;24.50;1.00;;;;;;7383843;19;20015;-71
2023/06/15 11:50:11;;;;;;;3.50;2.97;;;24.80;1.00;;;;;;7382839;19;20033;-72
2023/06/15 11:52:45;;;;;;;4.00;3.00;;;25.00;1.00;;;;;;7383655;19;20047;-72
2023/06/15 11:55:17;;;;;;;9.68;3.80;;;25.00;1.00;;;;;;7386542;19;20048;-71
2023/06/15 11:57:47;;;;;;;8.00;3.30;;;25.10;1.00;;;;;;7383253;19;20018;-72
2023/06/15 12:00:18;;;;;;;4.30;2.97;;;25.00;1.00;;;;;;7381456;19;20015;-72
2023/06/15 12:02:48;;;;;;;4.97;2.92;;;25.10;1.00;;;;;;7384391;19;20019;-71
2023/06/15 12:05:21;;;;;;;3.67;3.20;;;25.30;1.00;;;;;;7386185;19;20035;-72
2023/06/15 12:07:51;;;;;;;4.30;3.13;;;25.10;1.00;;;;;;7382045;19;20081;-72
2023/06/15 12:10:21;;;;;;;3.97;3.05;;;25.00;1.00;;;;;;7380964;19;20047;-71
2023/06/15 12:12:51;;;;;;;3.40;2.85;;;25.10;1.00;;;;;;7381891;19;20025;-71
2023/06/15 12:15:24;;;;;;;4.35;3.13;;;25.00;1.00;;;;;;7386511;19;20022;-71
2023/06/15 12:17:58;;;;;;;5.20;3.08;;;25.50;1.00;;;;;;7382550;19;20355;-71
2023/06/15 12:20:38;;;;;;;3.35;3.05;;;25.90;1.00;;;;;;7382018;19;20022;-70
2023/06/15 12:23:09;;;;;;;6.05;3.25;;;25.30;1.00;;;;;;7382842;19;20757;-72
2023/06/15 12:25:44;;;;;;;5.63;3.03;;;25.70;1.00;;;;;;7384700;19;20019;-71
2023/06/15 12:28:19;;;;;;;3.47;3.08;;;25.60;1.00;;;;;;7387093;19;20470;-71
2023/06/15 12:30:50;;;;;;;3.75;3.13;;;25.70;1.00;;;;;;7387414;19;20014;-71
2023/06/15 12:33:28;;;;;;;4.28;3.10;;;25.70;1.00;;;;;;7384683;19;20027;-71
2023/06/15 12:36:02;;;;;;;3.63;2.97;;;26.00;1.00;;;;;;7385584;19;20014;-71
2023/06/15 12:38:32;;;;;;;6.28;3.20;;;25.90;1.00;;;;;;7379575;19;20547;-72
2023/06/15 12:41:03;;;;;;;3.03;2.80;;;26.40;1.00;;;;;;7380674;19;20114;-72
2023/06/15 12:43:33;;;;;;;3.53;2.88;;;25.90;1.00;;;;;;7381189;19;20491;-71
2023/06/15 12:46:03;;;;;;;6.05;2.83;;;26.20;1.00;;;;;;7380213;19;20078;-71
2023/06/15 12:48:34;;;;;;;5.38;3.15;;;25.40;1.00;;;;;;7382333;19;20039;-72
2023/06/15 12:51:06;;;;;;;4.85;2.75;;;25.30;1.00;;;;;;7378456;19;20106;-71
2023/06/15 12:53:37;;;;;;;4.90;3.05;;;25.40;1.00;;;;;;7381514;19;20035;-71
2023/06/15 12:56:07;;;;;;;3.78;2.83;;;25.40;1.00;;;;;;7378525;19;20104;-72
2023/06/15 12:58:37;;;;;;;4.25;2.67;;;25.40;1.00;;;;;;7381716;19;20025;-70
2023/06/15 13:01:07;;;;;;;3.58;2.80;;;25.60;1.00;;;;;;7382001;19;20025;-72
2023/06/15 13:03:37;;;;;;;7.63;3.00;;;25.60;1.00;;;;;;7377980;19;20018;-73
2023/06/15 13:06:10;;;;;;;3.70;3.03;;;25.50;1.00;;;;;;7376159;19;20478;-70
2023/06/15 13:08:40;;;;;;;5.03;3.00;;;25.00;1.00;;;;;;7380217;19;20014;-71
2023/06/15 13:11:10;;;;;;;3.90;2.80;;;25.00;1.00;;;;;;7376178;19;20575;-72
2023/06/15 13:13:40;;;;;;;3.45;3.05;;;25.20;1.00;;;;;;7378570;19;20033;-71
2023/06/15 13:16:10;;;;;;;5.00;3.35;;;25.40;1.00;;;;;;7377194;19;20038;-71
2023/06/15 13:18:41;;;;;;;9.15;3.30;;;25.80;1.00;;;;;;7378599;19;20032;-72
2023/06/15 13:21:14;;;;;;;3.33;2.75;;;26.20;1.00;;;;;;7386749;19;20018;-72